Terminal Aerodrome Forecast
Issued by NWS

Home | Current Version | Previous Version | Text Only | Print | Product List | Glossary On
Versions: 1 2 3 4 5 6 7 8 9 10 11 12 13 14 15 16 17 18 19 20 21 22
000
FTUS42 KMLB 261300 AAA
TAFISM
TAF AMD
KISM 261315Z 2613/2712 34010KT P6SM VCSH BKN007 BKN035 OVC045
      TEMPO 2613/2614 5SM -RA BR BKN025 OVC040
     FM261500 32015G22KT P6SM BKN015 OVC040
     FM261800 31012G18KT P6SM SCT025 BKN050 OVC120
     FM262000 32010KT P6SM SKC=

USA.gov is the U.S. government's official web portal to all federal, state and local government web resources and services.